sensor_id;sensor_type;location;lat;lon;timestamp;P1;durP1;ratioP1;P2;durP2;ratioP2
23814;SDS011;12088;53.078;8.720;2022-10-16T00:01:11;0.50;;;0.50;;
23814;SDS011;12088;53.078;8.720;2022-10-16T00:03:38;0.70;;;0.70;;
23814;SDS011;12088;53.078;8.720;2022-10-16T00:06:05;0.30;;;0.30;;
23814;SDS011;12088;53.078;8.720;2022-10-16T00:08:31;0.67;;;0.67;;
23814;SDS011;12088;53.078;8.720;2022-10-16T00:11:00;0.53;;;0.50;;
23814;SDS011;12088;53.078;8.720;2022-10-16T00:13:31;0.30;;;0.30;;
23814;SDS011;12088;53.078;8.720;2022-10-16T00:15:58;3.43;;;0.83;;
23814;SDS011;12088;53.078;8.720;2022-10-16T00:18:25;0.60;;;0.60;;
23814;SDS011;12088;53.078;8.720;2022-10-16T00:20:51;2.33;;;0.90;;
23814;SDS011;12088;53.078;8.720;2022-10-16T00:23:16;1.07;;;1.00;;
23814;SDS011;12088;53.078;8.720;2022-10-16T00:25:42;0.77;;;0.77;;
23814;SDS011;12088;53.078;8.720;2022-10-16T00:28:08;0.70;;;0.50;;
23814;SDS011;12088;53.078;8.720;2022-10-16T00:30:33;0.40;;;0.40;;
23814;SDS011;12088;53.078;8.720;2022-10-16T00:33:02;0.37;;;0.37;;
23814;SDS011;12088;53.078;8.720;2022-10-16T00:35:27;2.07;;;0.60;;
23814;SDS011;12088;53.078;8.720;2022-10-16T00:37:54;1.93;;;0.60;;
23814;SDS011;12088;53.078;8.720;2022-10-16T00:40:19;0.77;;;0.50;;
23814;SDS011;12088;53.078;8.720;2022-10-16T00:42:45;0.67;;;0.67;;
23814;SDS011;12088;53.078;8.720;2022-10-16T00:45:10;1.73;;;1.00;;
23814;SDS011;12088;53.078;8.720;2022-10-16T00:47:40;0.40;;;0.40;;
23814;SDS011;12088;53.078;8.720;2022-10-16T00:52:46;0.50;;;0.50;;
23814;SDS011;12088;53.078;8.720;2022-10-16T00:55:15;0.70;;;0.70;;
23814;SDS011;12088;53.078;8.720;2022-10-16T00:57:41;0.47;;;0.47;;
23814;SDS011;12088;53.078;8.720;2022-10-16T01:00:08;1.70;;;1.23;;
23814;SDS011;12088;53.078;8.720;2022-10-16T01:02:36;0.60;;;0.60;;
23814;SDS011;12088;53.078;8.720;2022-10-16T01:05:01;0.33;;;0.33;;
23814;SDS011;12088;53.078;8.720;2022-10-16T01:13:05;0.30;;;0.30;;
23814;SDS011;12088;53.078;8.720;2022-10-16T01:18:29;0.70;;;0.63;;
23814;SDS011;12088;53.078;8.720;2022-10-16T01:31:47;0.33;;;0.33;;
23814;SDS011;12088;53.078;8.720;2022-10-16T01:34:22;0.70;;;0.70;;
23814;SDS011;12088;53.078;8.720;2022-10-16T01:36:59;0.63;;;0.63;;
23814;SDS011;12088;53.078;8.720;2022-10-16T01:39:30;0.73;;;0.73;;
23814;SDS011;12088;53.078;8.720;2022-10-16T01:42:00;0.40;;;0.40;;
23814;SDS011;12088;53.078;8.720;2022-10-16T01:44:31;0.70;;;0.70;;
23814;SDS011;12088;53.078;8.720;2022-10-16T01:46:58;0.33;;;0.33;;
23814;SDS011;12088;53.078;8.720;2022-10-16T01:49:26;0.53;;;0.53;;
23814;SDS011;12088;53.078;8.720;2022-10-16T01:51:59;0.40;;;0.40;;
23814;SDS011;12088;53.078;8.720;2022-10-16T01:54:27;0.67;;;0.67;;
23814;SDS011;12088;53.078;8.720;2022-10-16T01:56:55;0.63;;;0.60;;
23814;SDS011;12088;53.078;8.720;2022-10-16T01:59:22;0.50;;;0.50;;
23814;SDS011;12088;53.078;8.720;2022-10-16T02:01:52;0.40;;;0.40;;
23814;SDS011;12088;53.078;8.720;2022-10-16T02:04:28;0.70;;;0.70;;
23814;SDS011;12088;53.078;8.720;2022-10-16T02:06:56;0.40;;;0.40;;
23814;SDS011;12088;53.078;8.720;2022-10-16T02:09:22;13.77;;;1.00;;
23814;SDS011;12088;53.078;8.720;2022-10-16T02:11:48;0.93;;;0.60;;
23814;SDS011;12088;53.078;8.720;2022-10-16T02:14:17;2.77;;;1.13;;
23814;SDS011;12088;53.078;8.720;2022-10-16T02:16:45;0.63;;;0.60;;
23814;SDS011;12088;53.078;8.720;2022-10-16T02:19:14;0.50;;;0.50;;
23814;SDS011;12088;53.078;8.720;2022-10-16T02:27:05;0.40;;;0.40;;
23814;SDS011;12088;53.078;8.720;2022-10-16T02:29:36;0.40;;;0.40;;
23814;SDS011;12088;53.078;8.720;2022-10-16T02:32:09;0.60;;;0.60;;
23814;SDS011;12088;53.078;8.720;2022-10-16T02:34:37;0.50;;;0.50;;
23814;SDS011;12088;53.078;8.720;2022-10-16T02:37:05;0.93;;;0.93;;
23814;SDS011;12088;53.078;8.720;2022-10-16T02:39:32;0.50;;;0.50;;
23814;SDS011;12088;53.078;8.720;2022-10-16T02:41:59;0.40;;;0.40;;
23814;SDS011;12088;53.078;8.720;2022-10-16T02:44:24;0.50;;;0.50;;
23814;SDS011;12088;53.078;8.720;2022-10-16T02:46:50;0.57;;;0.57;;
23814;SDS011;12088;53.078;8.720;2022-10-16T02:49:15;0.47;;;0.47;;
23814;SDS011;12088;53.078;8.720;2022-10-16T02:51:42;0.70;;;0.70;;
23814;SDS011;12088;53.078;8.720;2022-10-16T02:54:08;0.40;;;0.40;;
23814;SDS011;12088;53.078;8.720;2022-10-16T02:56:33;1.03;;;0.70;;
23814;SDS011;12088;53.078;8.720;2022-10-16T02:58:59;0.37;;;0.37;;
23814;SDS011;12088;53.078;8.720;2022-10-16T03:01:24;0.57;;;0.57;;
23814;SDS011;12088;53.078;8.720;2022-10-16T03:03:50;0.70;;;0.70;;
23814;SDS011;12088;53.078;8.720;2022-10-16T03:06:16;1.10;;;1.03;;
23814;SDS011;12088;53.078;8.720;2022-10-16T03:08:41;0.50;;;0.50;;
23814;SDS011;12088;53.078;8.720;2022-10-16T03:11:07;0.40;;;0.40;;
23814;SDS011;12088;53.078;8.720;2022-10-16T03:13:32;10.40;;;1.17;;
23814;SDS011;12088;53.078;8.720;2022-10-16T03:15:58;0.47;;;0.47;;
23814;SDS011;12088;53.078;8.720;2022-10-16T03:18:23;2.77;;;1.13;;
23814;SDS011;12088;53.078;8.720;2022-10-16T03:20:49;0.70;;;0.70;;
23814;SDS011;12088;53.078;8.720;2022-10-16T03:23:15;0.40;;;0.40;;
23814;SDS011;12088;53.078;8.720;2022-10-16T03:25:40;0.60;;;0.60;;
23814;SDS011;12088;53.078;8.720;2022-10-16T03:28:06;0.40;;;0.40;;
23814;SDS011;12088;53.078;8.720;2022-10-16T03:30:31;0.43;;;0.43;;
23814;SDS011;12088;53.078;8.720;2022-10-16T03:32:57;0.40;;;0.40;;
23814;SDS011;12088;53.078;8.720;2022-10-16T03:35:23;0.50;;;0.50;;
23814;SDS011;12088;53.078;8.720;2022-10-16T03:37:49;0.80;;;0.80;;
23814;SDS011;12088;53.078;8.720;2022-10-16T03:40:15;0.80;;;0.80;;
23814;SDS011;12088;53.078;8.720;2022-10-16T03:42:44;0.70;;;0.70;;
23814;SDS011;12088;53.078;8.720;2022-10-16T03:45:10;0.60;;;0.60;;
23814;SDS011;12088;53.078;8.720;2022-10-16T03:47:36;0.70;;;0.70;;
23814;SDS011;12088;53.078;8.720;2022-10-16T03:50:02;1.20;;;0.63;;
23814;SDS011;12088;53.078;8.720;2022-10-16T03:52:29;0.50;;;0.50;;
23814;SDS011;12088;53.078;8.720;2022-10-16T03:54:54;0.70;;;0.70;;
23814;SDS011;12088;53.078;8.720;2022-10-16T03:57:20;0.80;;;0.80;;
23814;SDS011;12088;53.078;8.720;2022-10-16T03:59:46;0.63;;;0.63;;
23814;SDS011;12088;53.078;8.720;2022-10-16T04:02:11;0.60;;;0.60;;
23814;SDS011;12088;53.078;8.720;2022-10-16T04:04:37;0.60;;;0.60;;
23814;SDS011;12088;53.078;8.720;2022-10-16T04:07:03;0.70;;;0.70;;
23814;SDS011;12088;53.078;8.720;2022-10-16T04:09:28;1.87;;;0.80;;
23814;SDS011;12088;53.078;8.720;2022-10-16T04:11:54;1.23;;;1.10;;
23814;SDS011;12088;53.078;8.720;2022-10-16T04:14:20;0.70;;;0.70;;
23814;SDS011;12088;53.078;8.720;2022-10-16T04:16:45;1.70;;;0.93;;
23814;SDS011;12088;53.078;8.720;2022-10-16T04:19:11;1.00;;;1.00;;
23814;SDS011;12088;53.078;8.720;2022-10-16T04:21:36;1.80;;;1.50;;
23814;SDS011;12088;53.078;8.720;2022-10-16T04:24:02;3.50;;;2.20;;
23814;SDS011;12088;53.078;8.720;2022-10-16T04:26:28;0.57;;;0.57;;
23814;SDS011;12088;53.078;8.720;2022-10-16T04:28:54;1.30;;;1.07;;
23814;SDS011;12088;53.078;8.720;2022-10-16T04:31:19;0.90;;;0.90;;
23814;SDS011;12088;53.078;8.720;2022-10-16T04:33:45;0.77;;;0.77;;
23814;SDS011;12088;53.078;8.720;2022-10-16T04:36:11;0.70;;;0.70;;
23814;SDS011;12088;53.078;8.720;2022-10-16T04:38:36;0.90;;;0.90;;
23814;SDS011;12088;53.078;8.720;2022-10-16T04:41:03;2.03;;;0.80;;
23814;SDS011;12088;53.078;8.720;2022-10-16T04:43:28;1.67;;;1.50;;
23814;SDS011;12088;53.078;8.720;2022-10-16T04:45:54;1.00;;;0.97;;
23814;SDS011;12088;53.078;8.720;2022-10-16T04:48:21;1.00;;;1.00;;
23814;SDS011;12088;53.078;8.720;2022-10-16T04:50:46;1.57;;;1.47;;
23814;SDS011;12088;53.078;8.720;2022-10-16T04:53:12;2.00;;;1.50;;
23814;SDS011;12088;53.078;8.720;2022-10-16T04:55:38;1.80;;;1.70;;
23814;SDS011;12088;53.078;8.720;2022-10-16T04:58:03;2.20;;;2.00;;
23814;SDS011;12088;53.078;8.720;2022-10-16T05:00:29;0.70;;;0.70;;
23814;SDS011;12088;53.078;8.720;2022-10-16T05:02:55;3.43;;;1.90;;
23814;SDS011;12088;53.078;8.720;2022-10-16T05:05:20;3.93;;;1.70;;
23814;SDS011;12088;53.078;8.720;2022-10-16T05:07:47;1.03;;;1.03;;
23814;SDS011;12088;53.078;8.720;2022-10-16T05:10:12;1.00;;;0.90;;
23814;SDS011;12088;53.078;8.720;2022-10-16T05:12:38;1.67;;;1.57;;
23814;SDS011;12088;53.078;8.720;2022-10-16T05:15:04;1.73;;;1.63;;
23814;SDS011;12088;53.078;8.720;2022-10-16T05:17:30;2.43;;;2.23;;
23814;SDS011;12088;53.078;8.720;2022-10-16T05:19:55;1.50;;;1.40;;
23814;SDS011;12088;53.078;8.720;2022-10-16T05:22:21;1.47;;;1.37;;
23814;SDS011;12088;53.078;8.720;2022-10-16T05:24:47;2.13;;;2.03;;
23814;SDS011;12088;53.078;8.720;2022-10-16T05:27:12;2.70;;;1.93;;
23814;SDS011;12088;53.078;8.720;2022-10-16T05:29:44;1.53;;;1.30;;
23814;SDS011;12088;53.078;8.720;2022-10-16T05:32:16;1.30;;;1.20;;
23814;SDS011;12088;53.078;8.720;2022-10-16T05:34:43;1.57;;;1.47;;
23814;SDS011;12088;53.078;8.720;2022-10-16T05:37:09;2.03;;;1.93;;
23814;SDS011;12088;53.078;8.720;2022-10-16T05:39:36;1.70;;;1.60;;
23814;SDS011;12088;53.078;8.720;2022-10-16T05:42:02;1.50;;;1.40;;
23814;SDS011;12088;53.078;8.720;2022-10-16T05:44:28;0.90;;;0.90;;
23814;SDS011;12088;53.078;8.720;2022-10-16T05:46:54;1.90;;;1.80;;
23814;SDS011;12088;53.078;8.720;2022-10-16T05:49:19;2.10;;;1.83;;
23814;SDS011;12088;53.078;8.720;2022-10-16T05:51:45;1.43;;;1.33;;
23814;SDS011;12088;53.078;8.720;2022-10-16T05:54:10;1.23;;;1.23;;
23814;SDS011;12088;53.078;8.720;2022-10-16T05:56:36;2.77;;;2.20;;
23814;SDS011;12088;53.078;8.720;2022-10-16T05:59:03;2.27;;;1.70;;
23814;SDS011;12088;53.078;8.720;2022-10-16T06:01:29;2.03;;;1.70;;
23814;SDS011;12088;53.078;8.720;2022-10-16T06:03:55;1.97;;;1.50;;
23814;SDS011;12088;53.078;8.720;2022-10-16T06:06:22;1.37;;;1.03;;
23814;SDS011;12088;53.078;8.720;2022-10-16T06:08:50;1.77;;;1.67;;
23814;SDS011;12088;53.078;8.720;2022-10-16T06:11:18;2.63;;;1.77;;
23814;SDS011;12088;53.078;8.720;2022-10-16T06:13:45;2.17;;;2.03;;
23814;SDS011;12088;53.078;8.720;2022-10-16T06:16:14;1.37;;;1.20;;
23814;SDS011;12088;53.078;8.720;2022-10-16T06:18:40;3.90;;;1.87;;
23814;SDS011;12088;53.078;8.720;2022-10-16T06:21:14;6.80;;;1.17;;
23814;SDS011;12088;53.078;8.720;2022-10-16T06:23:42;3.93;;;1.90;;
23814;SDS011;12088;53.078;8.720;2022-10-16T06:26:08;1.40;;;1.30;;
23814;SDS011;12088;53.078;8.720;2022-10-16T06:28:36;3.23;;;1.70;;
23814;SDS011;12088;53.078;8.720;2022-10-16T06:31:02;2.67;;;2.03;;
23814;SDS011;12088;53.078;8.720;2022-10-16T06:33:29;1.40;;;1.30;;
23814;SDS011;12088;53.078;8.720;2022-10-16T06:35:59;1.83;;;1.63;;
23814;SDS011;12088;53.078;8.720;2022-10-16T06:38:29;1.60;;;1.27;;
23814;SDS011;12088;53.078;8.720;2022-10-16T06:40:55;2.10;;;1.37;;
23814;SDS011;12088;53.078;8.720;2022-10-16T06:43:21;2.93;;;1.93;;
23814;SDS011;12088;53.078;8.720;2022-10-16T06:45:53;1.67;;;1.43;;
23814;SDS011;12088;53.078;8.720;2022-10-16T06:48:19;1.87;;;1.47;;
23814;SDS011;12088;53.078;8.720;2022-10-16T06:50:54;1.70;;;1.50;;
23814;SDS011;12088;53.078;8.720;2022-10-16T06:53:42;3.30;;;3.00;;
23814;SDS011;12088;53.078;8.720;2022-10-16T06:56:15;1.53;;;1.43;;
23814;SDS011;12088;53.078;8.720;2022-10-16T06:58:42;1.73;;;1.63;;
23814;SDS011;12088;53.078;8.720;2022-10-16T07:01:09;2.70;;;1.77;;
23814;SDS011;12088;53.078;8.720;2022-10-16T07:03:36;1.60;;;1.50;;
23814;SDS011;12088;53.078;8.720;2022-10-16T07:06:03;1.40;;;1.33;;
23814;SDS011;12088;53.078;8.720;2022-10-16T07:08:30;2.17;;;1.57;;
23814;SDS011;12088;53.078;8.720;2022-10-16T07:11:01;0.93;;;0.93;;
23814;SDS011;12088;53.078;8.720;2022-10-16T07:13:34;1.37;;;1.27;;
23814;SDS011;12088;53.078;8.720;2022-10-16T07:16:14;2.40;;;2.20;;
23814;SDS011;12088;53.078;8.720;2022-10-16T07:18:42;2.87;;;2.40;;
23814;SDS011;12088;53.078;8.720;2022-10-16T07:21:11;3.07;;;2.80;;
23814;SDS011;12088;53.078;8.720;2022-10-16T07:23:38;1.47;;;1.37;;
23814;SDS011;12088;53.078;8.720;2022-10-16T07:26:05;2.37;;;1.87;;
23814;SDS011;12088;53.078;8.720;2022-10-16T07:28:32;1.20;;;1.20;;
23814;SDS011;12088;53.078;8.720;2022-10-16T07:31:02;1.80;;;1.27;;
23814;SDS011;12088;53.078;8.720;2022-10-16T07:33:29;1.53;;;1.47;;
23814;SDS011;12088;53.078;8.720;2022-10-16T07:35:55;1.17;;;1.07;;
23814;SDS011;12088;53.078;8.720;2022-10-16T07:38:20;1.63;;;1.50;;
23814;SDS011;12088;53.078;8.720;2022-10-16T07:40:46;2.43;;;1.93;;
23814;SDS011;12088;53.078;8.720;2022-10-16T07:43:13;3.27;;;1.47;;
23814;SDS011;12088;53.078;8.720;2022-10-16T07:45:49;2.70;;;1.10;;
23814;SDS011;12088;53.078;8.720;2022-10-16T07:48:16;1.30;;;1.20;;
23814;SDS011;12088;53.078;8.720;2022-10-16T07:50:42;2.23;;;1.70;;
23814;SDS011;12088;53.078;8.720;2022-10-16T07:53:09;1.23;;;1.13;;
23814;SDS011;12088;53.078;8.720;2022-10-16T07:55:35;1.37;;;1.07;;
23814;SDS011;12088;53.078;8.720;2022-10-16T07:58:00;3.37;;;1.37;;
23814;SDS011;12088;53.078;8.720;2022-10-16T08:00:26;1.53;;;1.23;;
23814;SDS011;12088;53.078;8.720;2022-10-16T08:02:51;9.83;;;1.57;;
23814;SDS011;12088;53.078;8.720;2022-10-16T08:05:17;2.57;;;1.67;;
23814;SDS011;12088;53.078;8.720;2022-10-16T08:07:42;0.80;;;0.80;;
23814;SDS011;12088;53.078;8.720;2022-10-16T08:10:16;0.70;;;0.70;;
23814;SDS011;12088;53.078;8.720;2022-10-16T08:12:43;2.00;;;0.93;;
23814;SDS011;12088;53.078;8.720;2022-10-16T08:15:09;2.07;;;1.40;;
23814;SDS011;12088;53.078;8.720;2022-10-16T08:17:35;2.37;;;1.07;;
23814;SDS011;12088;53.078;8.720;2022-10-16T08:20:01;2.80;;;1.50;;
23814;SDS011;12088;53.078;8.720;2022-10-16T08:22:26;1.33;;;1.23;;
23814;SDS011;12088;53.078;8.720;2022-10-16T08:24:52;2.07;;;1.30;;
23814;SDS011;12088;53.078;8.720;2022-10-16T08:27:18;5.10;;;2.03;;
23814;SDS011;12088;53.078;8.720;2022-10-16T08:29:43;0.47;;;0.47;;
23814;SDS011;12088;53.078;8.720;2022-10-16T08:32:09;0.90;;;0.73;;
23814;SDS011;12088;53.078;8.720;2022-10-16T08:34:34;3.60;;;1.47;;
23814;SDS011;12088;53.078;8.720;2022-10-16T08:37:00;0.87;;;0.87;;
23814;SDS011;12088;53.078;8.720;2022-10-16T08:39:25;2.07;;;0.83;;
23814;SDS011;12088;53.078;8.720;2022-10-16T08:41:57;2.50;;;1.33;;
23814;SDS011;12088;53.078;8.720;2022-10-16T08:47:24;2.70;;;1.30;;
23814;SDS011;12088;53.078;8.720;2022-10-16T08:49:58;1.40;;;1.07;;
23814;SDS011;12088;53.078;8.720;2022-10-16T08:52:29;1.87;;;1.10;;
23814;SDS011;12088;53.078;8.720;2022-10-16T08:54:57;3.42;;;1.08;;
23814;SDS011;12088;53.078;8.720;2022-10-16T08:57:24;0.95;;;0.95;;
23814;SDS011;12088;53.078;8.720;2022-10-16T08:59:51;13.95;;;1.52;;
23814;SDS011;12088;53.078;8.720;2022-10-16T09:05:09;1.95;;;1.60;;
23814;SDS011;12088;53.078;8.720;2022-10-16T09:08:18;0.63;;;0.63;;
23814;SDS011;12088;53.078;8.720;2022-10-16T09:16:24;0.50;;;0.50;;
23814;SDS011;12088;53.078;8.720;2022-10-16T09:19:14;1.23;;;0.82;;
23814;SDS011;12088;53.078;8.720;2022-10-16T09:21:48;3.63;;;0.80;;
23814;SDS011;12088;53.078;8.720;2022-10-16T09:24:14;0.82;;;0.80;;
23814;SDS011;12088;53.078;8.720;2022-10-16T09:26:51;0.43;;;0.43;;
23814;SDS011;12088;53.078;8.720;2022-10-16T09:29:17;0.95;;;0.73;;
23814;SDS011;12088;53.078;8.720;2022-10-16T09:31:45;0.63;;;0.63;;
23814;SDS011;12088;53.078;8.720;2022-10-16T09:34:24;0.60;;;0.47;;
23814;SDS011;12088;53.078;8.720;2022-10-16T09:36:51;0.85;;;0.50;;
23814;SDS011;12088;53.078;8.720;2022-10-16T09:39:17;1.17;;;0.70;;
23814;SDS011;12088;53.078;8.720;2022-10-16T09:41:43;0.50;;;0.50;;
23814;SDS011;12088;53.078;8.720;2022-10-16T09:44:29;1.05;;;0.82;;
23814;SDS011;12088;53.078;8.720;2022-10-16T09:47:03;0.50;;;0.50;;
23814;SDS011;12088;53.078;8.720;2022-10-16T09:49:30;0.40;;;0.40;;
23814;SDS011;12088;53.078;8.720;2022-10-16T09:52:06;0.60;;;0.60;;
23814;SDS011;12088;53.078;8.720;2022-10-16T09:54:37;1.15;;;0.95;;
23814;SDS011;12088;53.078;8.720;2022-10-16T09:57:15;0.60;;;0.60;;
23814;SDS011;12088;53.078;8.720;2022-10-16T09:59:47;0.77;;;0.77;;
23814;SDS011;12088;53.078;8.720;2022-10-16T10:02:15;0.50;;;0.50;;
23814;SDS011;12088;53.078;8.720;2022-10-16T10:04:52;0.40;;;0.40;;
23814;SDS011;12088;53.078;8.720;2022-10-16T10:07:39;0.93;;;0.80;;
23814;SDS011;12088;53.078;8.720;2022-10-16T10:10:22;0.65;;;0.65;;
23814;SDS011;12088;53.078;8.720;2022-10-16T10:12:49;1.20;;;0.63;;
23814;SDS011;12088;53.078;8.720;2022-10-16T10:15:15;0.77;;;0.50;;
23814;SDS011;12088;53.078;8.720;2022-10-16T10:17:50;4.25;;;0.75;;
23814;SDS011;12088;53.078;8.720;2022-10-16T10:20:27;0.60;;;0.60;;
23814;SDS011;12088;53.078;8.720;2022-10-16T10:22:56;0.30;;;0.30;;
23814;SDS011;12088;53.078;8.720;2022-10-16T10:28:18;4.47;;;0.57;;
23814;SDS011;12088;53.078;8.720;2022-10-16T10:33:30;1.13;;;0.50;;
23814;SDS011;12088;53.078;8.720;2022-10-16T10:38:59;0.65;;;0.63;;
23814;SDS011;12088;53.078;8.720;2022-10-16T10:43:58;3.45;;;0.65;;
23814;SDS011;12088;53.078;8.720;2022-10-16T10:46:41;0.40;;;0.40;;
23814;SDS011;12088;53.078;8.720;2022-10-16T10:55:03;0.45;;;0.45;;
23814;SDS011;12088;53.078;8.720;2022-10-16T10:57:38;0.57;;;0.57;;
23814;SDS011;12088;53.078;8.720;2022-10-16T11:09:00;0.98;;;0.70;;
23814;SDS011;12088;53.078;8.720;2022-10-16T11:11:38;1.27;;;0.80;;
23814;SDS011;12088;53.078;8.720;2022-10-16T11:16:53;0.40;;;0.40;;
23814;SDS011;12088;53.078;8.720;2022-10-16T11:22:11;0.30;;;0.30;;
23814;SDS011;12088;53.078;8.720;2022-10-16T11:25:06;0.60;;;0.60;;
23814;SDS011;12088;53.078;8.720;2022-10-16T11:30:33;0.40;;;0.40;;
23814;SDS011;12088;53.078;8.720;2022-10-16T11:36:03;0.80;;;0.50;;
23814;SDS011;12088;53.078;8.720;2022-10-16T11:38:58;1.02;;;0.63;;
23814;SDS011;12088;53.078;8.720;2022-10-16T11:41:37;0.35;;;0.35;;
23814;SDS011;12088;53.078;8.720;2022-10-16T11:44:24;0.30;;;0.30;;
23814;SDS011;12088;53.078;8.720;2022-10-16T11:47:07;2.90;;;0.65;;
23814;SDS011;12088;53.078;8.720;2022-10-16T11:49:49;4.88;;;0.98;;
23814;SDS011;12088;53.078;8.720;2022-10-16T11:52:20;1.45;;;0.52;;
23814;SDS011;12088;53.078;8.720;2022-10-16T11:55:01;0.38;;;0.38;;
23814;SDS011;12088;53.078;8.720;2022-10-16T11:57:31;0.30;;;0.30;;
23814;SDS011;12088;53.078;8.720;2022-10-16T12:00:02;0.40;;;0.40;;
23814;SDS011;12088;53.078;8.720;2022-10-16T12:05:29;0.90;;;0.40;;
23814;SDS011;12088;53.078;8.720;2022-10-16T12:08:17;0.60;;;0.60;;
23814;SDS011;12088;53.078;8.720;2022-10-16T12:10:44;3.53;;;0.77;;
23814;SDS011;12088;53.078;8.720;2022-10-16T12:14:03;0.60;;;0.60;;
23814;SDS011;12088;53.078;8.720;2022-10-16T12:18:39;0.43;;;0.43;;
23814;SDS011;12088;53.078;8.720;2022-10-16T12:21:06;2.28;;;1.23;;
23814;SDS011;12088;53.078;8.720;2022-10-16T12:23:36;0.50;;;0.50;;
23814;SDS011;12088;53.078;8.720;2022-10-16T12:26:04;0.47;;;0.47;;
23814;SDS011;12088;53.078;8.720;2022-10-16T12:28:31;0.47;;;0.47;;
23814;SDS011;12088;53.078;8.720;2022-10-16T12:31:02;4.10;;;0.50;;
23814;SDS011;12088;53.078;8.720;2022-10-16T12:33:33;0.60;;;0.60;;
23814;SDS011;12088;53.078;8.720;2022-10-16T12:36:00;0.73;;;0.73;;
23814;SDS011;12088;53.078;8.720;2022-10-16T12:38:30;4.38;;;0.50;;
23814;SDS011;12088;53.078;8.720;2022-10-16T12:41:11;0.98;;;0.60;;
23814;SDS011;12088;53.078;8.720;2022-10-16T12:48:35;0.38;;;0.38;;
23814;SDS011;12088;53.078;8.720;2022-10-16T12:51:12;0.40;;;0.40;;
23814;SDS011;12088;53.078;8.720;2022-10-16T12:54:02;0.55;;;0.55;;
23814;SDS011;12088;53.078;8.720;2022-10-16T13:05:17;4.00;;;0.70;;
23814;SDS011;12088;53.078;8.720;2022-10-16T13:10:23;0.50;;;0.50;;
23814;SDS011;12088;53.078;8.720;2022-10-16T13:12:58;0.30;;;0.30;;
23814;SDS011;12088;53.078;8.720;2022-10-16T13:15:52;0.40;;;0.35;;
23814;SDS011;12088;53.078;8.720;2022-10-16T13:18:25;0.40;;;0.40;;
23814;SDS011;12088;53.078;8.720;2022-10-16T13:23:36;5.30;;;1.05;;
23814;SDS011;12088;53.078;8.720;2022-10-16T13:26:16;0.50;;;0.50;;
23814;SDS011;12088;53.078;8.720;2022-10-16T13:28:51;0.98;;;0.65;;
23814;SDS011;12088;53.078;8.720;2022-10-16T13:31:19;0.35;;;0.35;;
23814;SDS011;12088;53.078;8.720;2022-10-16T13:33:47;6.03;;;0.70;;
23814;SDS011;12088;53.078;8.720;2022-10-16T13:36:24;1.15;;;0.68;;
23814;SDS011;12088;53.078;8.720;2022-10-16T13:41:38;0.50;;;0.50;;
23814;SDS011;12088;53.078;8.720;2022-10-16T13:44:04;0.85;;;0.85;;
23814;SDS011;12088;53.078;8.720;2022-10-16T13:46:35;0.40;;;0.40;;
23814;SDS011;12088;53.078;8.720;2022-10-16T13:49:03;0.45;;;0.45;;
23814;SDS011;12088;53.078;8.720;2022-10-16T13:51:30;2.25;;;0.63;;
23814;SDS011;12088;53.078;8.720;2022-10-16T13:53:57;1.77;;;0.38;;
23814;SDS011;12088;53.078;8.720;2022-10-16T13:56:27;0.60;;;0.60;;
23814;SDS011;12088;53.078;8.720;2022-10-16T13:58:58;0.52;;;0.52;;
23814;SDS011;12088;53.078;8.720;2022-10-16T14:01:34;4.15;;;0.70;;
23814;SDS011;12088;53.078;8.720;2022-10-16T14:04:09;1.27;;;0.82;;
23814;SDS011;12088;53.078;8.720;2022-10-16T14:06:39;0.30;;;0.30;;
23814;SDS011;12088;53.078;8.720;2022-10-16T14:09:14;1.60;;;0.85;;
23814;SDS011;12088;53.078;8.720;2022-10-16T14:11:52;0.50;;;0.50;;
23814;SDS011;12088;53.078;8.720;2022-10-16T14:14:20;0.60;;;0.60;;
23814;SDS011;12088;53.078;8.720;2022-10-16T14:16:47;6.50;;;0.57;;
23814;SDS011;12088;53.078;8.720;2022-10-16T14:19:15;1.55;;;0.90;;
23814;SDS011;12088;53.078;8.720;2022-10-16T14:21:45;0.63;;;0.63;;
23814;SDS011;12088;53.078;8.720;2022-10-16T14:24:12;1.08;;;0.30;;
23814;SDS011;12088;53.078;8.720;2022-10-16T14:26:42;0.47;;;0.47;;
23814;SDS011;12088;53.078;8.720;2022-10-16T14:29:17;0.30;;;0.30;;
23814;SDS011;12088;53.078;8.720;2022-10-16T14:31:56;0.68;;;0.68;;
23814;SDS011;12088;53.078;8.720;2022-10-16T14:34:25;2.33;;;0.50;;
23814;SDS011;12088;53.078;8.720;2022-10-16T14:39:49;0.55;;;0.52;;
23814;SDS011;12088;53.078;8.720;2022-10-16T14:42:16;1.13;;;0.70;;
23814;SDS011;12088;53.078;8.720;2022-10-16T14:44:44;0.95;;;0.73;;
23814;SDS011;12088;53.078;8.720;2022-10-16T14:47:13;0.47;;;0.47;;
23814;SDS011;12088;53.078;8.720;2022-10-16T14:49:41;0.90;;;0.63;;
23814;SDS011;12088;53.078;8.720;2022-10-16T14:52:11;0.40;;;0.40;;
23814;SDS011;12088;53.078;8.720;2022-10-16T14:54:37;0.43;;;0.43;;
23814;SDS011;12088;53.078;8.720;2022-10-16T14:57:02;0.40;;;0.40;;
23814;SDS011;12088;53.078;8.720;2022-10-16T14:59:38;0.98;;;0.52;;
23814;SDS011;12088;53.078;8.720;2022-10-16T15:05:25;15.65;;;1.45;;
23814;SDS011;12088;53.078;8.720;2022-10-16T15:07:51;0.40;;;0.40;;
23814;SDS011;12088;53.078;8.720;2022-10-16T15:10:18;1.55;;;0.82;;
23814;SDS011;12088;53.078;8.720;2022-10-16T15:12:45;0.40;;;0.40;;
23814;SDS011;12088;53.078;8.720;2022-10-16T15:17:52;0.60;;;0.60;;
23814;SDS011;12088;53.078;8.720;2022-10-16T15:20:21;0.40;;;0.40;;
23814;SDS011;12088;53.078;8.720;2022-10-16T15:22:50;0.47;;;0.47;;
23814;SDS011;12088;53.078;8.720;2022-10-16T15:25:34;1.50;;;0.60;;
23814;SDS011;12088;53.078;8.720;2022-10-16T15:28:00;0.77;;;0.67;;
23814;SDS011;12088;53.078;8.720;2022-10-16T15:30:28;0.50;;;0.50;;
23814;SDS011;12088;53.078;8.720;2022-10-16T15:32:53;0.70;;;0.43;;
23814;SDS011;12088;53.078;8.720;2022-10-16T15:35:19;0.30;;;0.30;;
23814;SDS011;12088;53.078;8.720;2022-10-16T15:37:45;3.10;;;1.17;;
23814;SDS011;12088;53.078;8.720;2022-10-16T15:40:12;0.70;;;0.60;;
23814;SDS011;12088;53.078;8.720;2022-10-16T15:42:39;0.67;;;0.67;;
23814;SDS011;12088;53.078;8.720;2022-10-16T15:45:04;0.30;;;0.30;;
23814;SDS011;12088;53.078;8.720;2022-10-16T15:47:31;0.57;;;0.57;;
23814;SDS011;12088;53.078;8.720;2022-10-16T15:49:57;1.07;;;0.60;;
23814;SDS011;12088;53.078;8.720;2022-10-16T15:52:22;1.03;;;0.80;;
23814;SDS011;12088;53.078;8.720;2022-10-16T15:54:48;0.40;;;0.40;;
23814;SDS011;12088;53.078;8.720;2022-10-16T15:57:13;0.40;;;0.40;;
23814;SDS011;12088;53.078;8.720;2022-10-16T15:59:39;0.47;;;0.47;;
23814;SDS011;12088;53.078;8.720;2022-10-16T16:02:05;0.40;;;0.40;;
23814;SDS011;12088;53.078;8.720;2022-10-16T16:04:30;0.50;;;0.50;;
23814;SDS011;12088;53.078;8.720;2022-10-16T16:06:56;3.13;;;0.70;;
23814;SDS011;12088;53.078;8.720;2022-10-16T16:09:21;0.50;;;0.50;;
23814;SDS011;12088;53.078;8.720;2022-10-16T16:11:50;0.40;;;0.40;;
23814;SDS011;12088;53.078;8.720;2022-10-16T16:14:17;3.23;;;1.70;;
23814;SDS011;12088;53.078;8.720;2022-10-16T16:16:42;0.50;;;0.50;;
23814;SDS011;12088;53.078;8.720;2022-10-16T16:19:08;0.40;;;0.40;;
23814;SDS011;12088;53.078;8.720;2022-10-16T16:21:34;0.50;;;0.47;;
23814;SDS011;12088;53.078;8.720;2022-10-16T16:23:59;2.90;;;0.60;;
23814;SDS011;12088;53.078;8.720;2022-10-16T16:26:26;0.40;;;0.40;;
23814;SDS011;12088;53.078;8.720;2022-10-16T16:28:54;0.40;;;0.40;;
23814;SDS011;12088;53.078;8.720;2022-10-16T16:31:23;0.53;;;0.53;;
23814;SDS011;12088;53.078;8.720;2022-10-16T16:33:50;6.43;;;0.40;;
23814;SDS011;12088;53.078;8.720;2022-10-16T16:36:16;0.63;;;0.60;;
23814;SDS011;12088;53.078;8.720;2022-10-16T16:38:45;1.07;;;0.87;;
23814;SDS011;12088;53.078;8.720;2022-10-16T16:41:12;3.73;;;1.13;;
23814;SDS011;12088;53.078;8.720;2022-10-16T16:43:45;1.63;;;0.63;;
23814;SDS011;12088;53.078;8.720;2022-10-16T16:46:12;0.40;;;0.40;;
23814;SDS011;12088;53.078;8.720;2022-10-16T16:48:38;0.40;;;0.40;;
23814;SDS011;12088;53.078;8.720;2022-10-16T16:51:05;0.50;;;0.50;;